ZBTJ

Tianjin Binhai International Airport

Tianjin, China
TAF ZBTJ 241923Z 2500/2524 16003MPS 5000 HZ NSC TX24/2507Z TN12/2521Z
Issued Valid From Valid To
Sep-24 @ 19:23 UTC
(6 hours ago)
Sep-25 @ 00:00 UTC
(an hour ago)
Sep-26 @ 00:00 UTC
(in 23 hours)
Sep-25 @ 00:00 to Sep-26 @ 00:00
TAF ZBTJ 241923Z 2500/2524 16003MPS 5000 HZ NSC TX24/2507Z TN12/2521Z
Wind Visibility Clouds Conditions
160° at 6 knots 5,005 meters
  • No significant clouds
  • Haze
TAF ZBTJ 241923Z 2500/2524 16003MPS 5000 HZ NSC TX24/2507Z TN12/2521Z
Issued Sep-24 @ 19:23 UTC
(6 hours ago)
Valid From Sep-25 @ 00:00 UTC
(an hour ago)
Valid To Sep-26 @ 00:00 UTC
(in 23 hours)
Sep-25 @ 00:00 - Sep-26 @ 00:00
Wind Visibility
160° at 6 knots 5,005 meters
Clouds
  • No significant clouds
Conditions
  • Haze